createdAt,value
2023-02-24T00:02:01.301Z,13.95
2023-02-24T00:04:34.942Z,14.00
2023-02-24T00:07:03.090Z,14.01
2023-02-24T00:09:35.829Z,13.97
2023-02-24T00:12:13.317Z,13.97
2023-02-24T00:14:43.105Z,13.92
2023-02-24T00:17:14.720Z,14.00
2023-02-24T00:19:42.495Z,14.00
2023-02-24T00:22:10.076Z,14.02
2023-02-24T00:24:39.504Z,14.05
2023-02-24T00:27:12.475Z,14.18
2023-02-24T00:29:42.244Z,14.15
2023-02-24T00:32:13.163Z,14.19
2023-02-24T00:34:41.897Z,14.24
2023-02-24T00:37:15.577Z,14.19
2023-02-24T00:39:45.084Z,14.15
2023-02-24T00:42:12.247Z,14.13
2023-02-24T00:44:45.812Z,14.15
2023-02-24T00:47:19.118Z,14.19
2023-02-24T00:49:46.497Z,14.18
2023-02-24T00:52:19.275Z,14.19
2023-02-24T00:54:52.650Z,14.19
2023-02-24T00:57:21.628Z,14.17
2023-02-24T00:59:51.935Z,14.16
2023-02-24T01:02:22.702Z,14.19
2023-02-24T01:04:54.649Z,14.18
2023-02-24T01:07:22.598Z,14.20
2023-02-24T01:09:51.203Z,14.06
2023-02-24T01:12:38.584Z,13.92
2023-02-24T01:15:09.506Z,13.70
2023-02-24T01:17:39.556Z,13.63
2023-02-24T01:20:19.024Z,13.50
2023-02-24T01:22:49.361Z,13.37
2023-02-24T01:25:17.996Z,13.30
2023-02-24T01:27:50.420Z,13.11
2023-02-24T01:30:18.660Z,13.06
2023-02-24T01:32:47.564Z,13.05
2023-02-24T01:35:15.253Z,12.87
2023-02-24T01:37:43.734Z,12.80
2023-02-24T01:40:19.003Z,12.84
2023-02-24T01:42:47.924Z,12.75
2023-02-24T01:45:25.719Z,12.67
2023-02-24T01:47:54.602Z,12.57
2023-02-24T01:50:26.399Z,12.50
2023-02-24T01:52:58.634Z,12.50
2023-02-24T01:55:35.355Z,12.51
2023-02-24T01:58:09.771Z,12.48
2023-02-24T02:00:45.118Z,12.42
2023-02-24T02:03:36.987Z,12.28
2023-02-24T02:06:11.425Z,12.20
2023-02-24T02:08:41.431Z,12.10
2023-02-24T02:11:13.490Z,12.07
2023-02-24T02:13:44.561Z,12.02
2023-02-24T02:16:43.695Z,12.00
2023-02-24T02:19:13.567Z,11.91
2023-02-24T02:22:05.712Z,11.93
2023-02-24T02:25:00.453Z,11.91
2023-02-24T02:27:29.529Z,11.90
2023-02-24T02:30:09.415Z,11.84
2023-02-24T02:33:07.426Z,11.84
2023-02-24T02:36:00.792Z,11.85
2023-02-24T02:38:38.119Z,11.75
2023-02-24T02:41:31.675Z,11.69
2023-02-24T02:44:14.610Z,11.56
2023-02-24T02:46:47.079Z,11.53
2023-02-24T02:49:21.965Z,11.51
2023-02-24T02:51:56.957Z,11.54
2023-02-24T02:54:29.246Z,11.56
2023-02-24T02:57:01.491Z,11.59
2023-02-24T02:59:31.595Z,11.58
2023-02-24T03:02:11.857Z,11.45
2023-02-24T03:04:43.670Z,11.47
2023-02-24T03:07:14.557Z,11.52
2023-02-24T03:09:46.390Z,11.54
2023-02-24T03:12:19.386Z,11.49
2023-02-24T03:14:57.561Z,11.42
2023-02-24T03:17:28.953Z,11.38
2023-02-24T03:20:15.117Z,11.31
2023-02-24T03:23:07.372Z,11.17
2023-02-24T03:25:53.472Z,11.21
2023-02-24T03:28:30.458Z,11.19
2023-02-24T03:31:23.045Z,11.23
2023-02-24T03:34:03.856Z,11.24
2023-02-24T03:36:33.316Z,11.23
2023-02-24T03:39:02.208Z,11.25
2023-02-24T03:41:41.233Z,11.29
2023-02-24T03:44:11.704Z,11.28
2023-02-24T03:46:42.733Z,11.32
2023-02-24T03:49:12.658Z,11.29
2023-02-24T03:51:44.966Z,11.21
2023-02-24T03:54:44.318Z,11.18
2023-02-24T03:57:23.347Z,11.04
2023-02-24T04:00:22.862Z,11.03
2023-02-24T04:03:03.618Z,11.07
2023-02-24T04:05:35.382Z,11.10
2023-02-24T04:08:07.891Z,11.05
2023-02-24T04:10:52.744Z,11.05
2023-02-24T04:13:43.376Z,10.99
2023-02-24T04:16:29.185Z,10.94
2023-02-24T04:19:04.023Z,10.99
2023-02-24T04:21:37.258Z,10.97
2023-02-24T04:24:11.594Z,10.94
2023-02-24T04:26:40.793Z,10.88
2023-02-24T04:29:11.664Z,10.86
2023-02-24T04:31:42.724Z,10.89
2023-02-24T04:34:09.921Z,10.84
2023-02-24T04:36:39.757Z,10.90
2023-02-24T04:39:07.830Z,10.91
2023-02-24T04:41:35.902Z,10.90
2023-02-24T04:44:02.830Z,10.84
2023-02-24T04:46:32.669Z,10.86
2023-02-24T04:49:02.327Z,10.88
2023-02-24T04:51:31.915Z,10.92
2023-02-24T04:53:58.801Z,10.92
2023-02-24T04:56:25.778Z,10.93
2023-02-24T04:58:52.648Z,10.93
2023-02-24T05:01:19.821Z,10.90
2023-02-24T05:03:47.795Z,10.94
2023-02-24T05:06:16.786Z,10.95
2023-02-24T05:08:44.147Z,10.96
2023-02-24T05:11:18.537Z,10.91
2023-02-24T05:13:46.173Z,10.93
2023-02-24T05:16:16.868Z,10.90
2023-02-24T05:18:44.903Z,10.92
2023-02-24T05:21:33.991Z,10.82
2023-02-24T05:24:07.063Z,10.82
2023-02-24T05:26:37.156Z,10.83
2023-02-24T05:29:06.806Z,10.72
2023-02-24T05:31:34.653Z,10.71
2023-02-24T05:34:07.845Z,10.73
2023-02-24T05:36:40.096Z,10.77
2023-02-24T05:39:08.146Z,10.79
2023-02-24T05:41:38.840Z,10.73
2023-02-24T05:44:10.950Z,10.67
2023-02-24T05:46:40.852Z,10.66
2023-02-24T05:49:14.907Z,10.65
2023-02-24T05:51:54.853Z,10.57
2023-02-24T05:54:26.030Z,10.56
2023-02-24T05:56:53.015Z,10.56
2023-02-24T05:59:21.657Z,10.50
2023-02-24T06:01:53.396Z,10.52
2023-02-24T06:04:39.360Z,10.52
2023-02-24T06:07:13.668Z,10.48
2023-02-24T06:09:45.145Z,10.44
2023-02-24T06:12:17.021Z,10.47
2023-02-24T06:14:45.221Z,10.40
2023-02-24T06:17:12.631Z,10.39
2023-02-24T06:19:41.362Z,10.42
2023-02-24T06:22:12.152Z,10.42
2023-02-24T06:24:44.362Z,10.32
2023-02-24T06:27:17.986Z,10.38
2023-02-24T06:29:46.568Z,10.38
2023-02-24T06:32:13.485Z,10.31
2023-02-24T06:34:41.337Z,10.31
2023-02-24T06:37:11.106Z,10.29
2023-02-24T06:39:37.974Z,10.28
2023-02-24T06:42:05.966Z,10.19
2023-02-24T06:44:34.074Z,10.21
2023-02-24T06:47:01.641Z,10.22
2023-02-24T06:49:29.641Z,10.19
2023-02-24T06:51:58.160Z,10.18
2023-02-24T06:54:30.658Z,10.20
2023-02-24T06:57:00.620Z,10.30
2023-02-24T06:59:30.476Z,10.40
2023-02-24T07:01:59.687Z,10.63
2023-02-24T07:04:28.889Z,10.86
2023-02-24T07:07:03.671Z,11.09
2023-02-24T07:09:32.202Z,11.43
2023-02-24T07:12:02.705Z,11.92
2023-02-24T07:14:33.464Z,12.36
2023-02-24T07:17:00.730Z,12.87
2023-02-24T07:19:30.226Z,13.31
2023-02-24T07:22:03.575Z,13.97
2023-02-24T07:24:33.645Z,14.58
2023-02-24T07:27:06.350Z,15.24
2023-02-24T07:29:35.075Z,15.83
2023-02-24T07:32:05.838Z,16.48
2023-02-24T07:34:34.063Z,17.08
2023-02-24T07:37:08.321Z,17.50
2023-02-24T07:39:39.745Z,18.18
2023-02-24T07:42:13.494Z,18.41
2023-02-24T07:44:46.643Z,18.79
2023-02-24T07:47:16.149Z,19.21
2023-02-24T07:49:43.820Z,19.83
2023-02-24T07:52:11.782Z,19.87
2023-02-24T07:54:39.488Z,19.81
2023-02-24T07:57:14.136Z,20.43
2023-02-24T07:59:48.774Z,21.13
2023-02-24T08:02:16.939Z,21.57
2023-02-24T08:04:50.414Z,21.81
2023-02-24T08:07:25.265Z,21.53
2023-02-24T08:10:14.413Z,22.33
2023-02-24T08:12:45.223Z,23.15
2023-02-24T08:15:23.826Z,23.87
2023-02-24T08:17:59.750Z,24.39
2023-02-24T08:20:47.960Z,24.80
2023-02-24T08:23:14.937Z,24.80
2023-02-24T08:25:44.650Z,25.30
2023-02-24T08:28:12.415Z,26.17
2023-02-24T08:30:46.289Z,26.88
2023-02-24T08:33:19.967Z,27.38
2023-02-24T08:35:52.358Z,26.94
2023-02-24T08:38:24.301Z,26.78
2023-02-24T08:40:55.203Z,26.63
2023-02-24T08:43:31.163Z,27.13
2023-02-24T08:46:18.745Z,27.88
2023-02-24T08:48:50.216Z,28.08
2023-02-24T08:51:22.827Z,28.63
2023-02-24T08:53:54.760Z,28.09
2023-02-24T08:56:28.990Z,28.94
2023-02-24T08:58:57.352Z,28.72
2023-02-24T09:01:35.585Z,28.92
2023-02-24T09:04:06.912Z,30.00
2023-02-24T09:06:36.872Z,30.60
2023-02-24T09:09:17.666Z,31.04
2023-02-24T09:11:50.330Z,31.36
2023-02-24T09:14:27.011Z,31.94
2023-02-24T09:17:11.644Z,32.32
2023-02-24T09:19:48.134Z,32.75
2023-02-24T09:22:32.718Z,32.74
2023-02-24T09:25:19.055Z,33.15
2023-02-24T09:28:10.567Z,33.24
2023-02-24T09:30:51.948Z,33.55
2023-02-24T09:33:22.437Z,33.22
2023-02-24T09:36:15.920Z,33.51
2023-02-24T09:39:01.281Z,33.23
2023-02-24T09:41:53.469Z,34.06
2023-02-24T09:44:42.623Z,34.24
2023-02-24T09:47:31.438Z,33.64
2023-02-24T09:50:14.385Z,34.37
2023-02-24T09:52:41.711Z,34.40
2023-02-24T09:55:25.379Z,34.50
2023-02-24T09:58:18.652Z,34.94
2023-02-24T10:01:21.741Z,34.87
2023-02-24T10:04:14.829Z,35.06
2023-02-24T10:07:14.543Z,34.92
2023-02-24T10:09:46.937Z,35.40
2023-02-24T10:12:19.272Z,35.94
2023-02-24T10:15:32.317Z,35.85
2023-02-24T10:18:13.384Z,36.37
2023-02-24T10:20:45.803Z,36.86
2023-02-24T10:23:12.717Z,36.88
2023-02-24T10:25:54.339Z,36.97
2023-02-24T10:28:38.011Z,36.99
2023-02-24T10:31:26.918Z,37.05
2023-02-24T10:34:06.356Z,36.92
2023-02-24T10:36:38.253Z,37.38
2023-02-24T10:39:20.832Z,37.84
2023-02-24T10:41:57.741Z,38.18
2023-02-24T10:44:39.132Z,38.43
2023-02-24T10:47:12.076Z,38.35
2023-02-24T10:49:45.091Z,38.11
2023-02-24T10:52:33.517Z,38.27
2023-02-24T10:55:26.471Z,37.72
2023-02-24T10:58:06.010Z,36.98
2023-02-24T11:00:59.724Z,36.80
2023-02-24T11:03:57.772Z,36.57
2023-02-24T11:06:42.290Z,36.22
2023-02-24T11:09:30.377Z,36.45
2023-02-24T11:12:19.125Z,35.71
2023-02-24T11:15:09.334Z,34.93
2023-02-24T11:17:38.259Z,34.75
2023-02-24T11:20:16.001Z,34.54
2023-02-24T11:22:45.897Z,33.94
2023-02-24T11:25:36.545Z,34.45
2023-02-24T11:28:04.808Z,33.97
2023-02-24T11:31:04.892Z,33.55
2023-02-24T11:33:31.867Z,32.36
2023-02-24T11:36:12.948Z,31.40
2023-02-24T11:39:15.446Z,30.52
2023-02-24T11:41:53.331Z,29.10
2023-02-24T11:44:58.281Z,28.47
2023-02-24T11:47:57.462Z,27.56
2023-02-24T11:50:30.859Z,26.74
2023-02-24T11:53:01.658Z,26.16
2023-02-24T11:55:51.559Z,25.48
2023-02-24T11:58:27.508Z,24.85
2023-02-24T12:01:01.580Z,24.49
2023-02-24T12:03:34.497Z,24.27
2023-02-24T12:06:17.366Z,23.90
2023-02-24T12:08:49.585Z,23.42
2023-02-24T12:11:45.368Z,23.25
2023-02-24T12:14:35.393Z,22.80
2023-02-24T12:17:18.326Z,22.72
2023-02-24T12:20:15.989Z,22.39
2023-02-24T12:23:10.752Z,22.15
2023-02-24T12:26:09.196Z,21.98
2023-02-24T12:29:16.290Z,21.96
2023-02-24T12:32:00.721Z,21.82
2023-02-24T12:34:46.220Z,21.72
2023-02-24T12:37:46.728Z,21.45
2023-02-24T12:40:16.472Z,21.47
2023-02-24T12:42:51.818Z,21.50
2023-02-24T12:46:00.094Z,21.30
2023-02-24T12:48:45.889Z,21.11
2023-02-24T12:51:50.168Z,21.15
2023-02-24T12:54:24.781Z,21.16
2023-02-24T12:57:15.754Z,21.20
2023-02-24T12:59:42.906Z,21.00
2023-02-24T13:02:27.933Z,20.91
2023-02-24T13:05:13.601Z,20.78
2023-02-24T13:07:43.305Z,20.70
2023-02-24T13:10:32.170Z,20.49
2023-02-24T13:13:28.254Z,20.53
2023-02-24T13:15:57.525Z,20.36
2023-02-24T13:18:30.743Z,20.14
2023-02-24T13:21:24.839Z,20.12
2023-02-24T13:24:01.221Z,20.08
2023-02-24T13:26:31.476Z,19.88
2023-02-24T13:29:19.174Z,19.84
2023-02-24T13:31:49.565Z,19.85
2023-02-24T13:34:44.099Z,19.59
2023-02-24T13:37:11.627Z,19.66
2023-02-24T13:39:44.438Z,19.63
2023-02-24T13:42:22.032Z,19.56
2023-02-24T13:45:10.471Z,19.55
2023-02-24T13:48:04.012Z,19.52
2023-02-24T13:50:58.995Z,19.41
2023-02-24T13:53:37.968Z,19.35
2023-02-24T13:56:18.759Z,19.29
2023-02-24T13:59:16.812Z,19.23
2023-02-24T14:02:04.118Z,19.22
2023-02-24T14:04:33.496Z,19.21
2023-02-24T14:07:04.848Z,19.12
2023-02-24T14:09:38.010Z,19.05
2023-02-24T14:12:13.212Z,18.86
2023-02-24T14:14:43.107Z,18.83
2023-02-24T14:17:39.434Z,18.91
2023-02-24T14:20:22.018Z,18.93
2023-02-24T14:22:59.011Z,18.89
2023-02-24T14:25:38.864Z,18.88
2023-02-24T14:28:06.224Z,18.91
2023-02-24T14:30:37.133Z,18.87
2023-02-24T14:33:07.054Z,18.75
2023-02-24T14:35:42.077Z,18.61
2023-02-24T14:38:30.728Z,18.57
2023-02-24T14:40:58.434Z,18.51
2023-02-24T14:43:25.834Z,18.40
2023-02-24T14:45:54.417Z,18.50
2023-02-24T14:48:26.068Z,18.51
2023-02-24T14:50:58.084Z,18.46
2023-02-24T14:53:28.382Z,18.38
2023-02-24T14:55:57.455Z,18.39
2023-02-24T14:58:32.965Z,18.38
2023-02-24T15:01:05.749Z,18.30
2023-02-24T15:03:48.764Z,18.22
2023-02-24T15:06:28.872Z,18.15
2023-02-24T15:09:01.469Z,17.98
2023-02-24T15:11:31.496Z,18.04
2023-02-24T15:14:06.269Z,18.07
2023-02-24T15:16:39.928Z,18.02
2023-02-24T15:19:29.926Z,17.85
2023-02-24T15:21:57.615Z,17.91
2023-02-24T15:24:29.912Z,17.81
2023-02-24T15:26:59.996Z,17.66
2023-02-24T15:29:30.792Z,17.65
2023-02-24T15:32:00.384Z,17.73
2023-02-24T15:34:35.104Z,17.54
2023-02-24T15:37:04.551Z,17.59
2023-02-24T15:39:34.330Z,17.54
2023-02-24T15:42:23.811Z,17.57
2023-02-24T15:44:53.365Z,17.53
2023-02-24T15:47:26.483Z,17.55
2023-02-24T15:49:53.388Z,17.53
2023-02-24T15:52:23.894Z,17.52
2023-02-24T15:54:51.298Z,17.44
2023-02-24T15:57:20.235Z,17.46
2023-02-24T15:59:48.457Z,17.46
2023-02-24T16:02:21.404Z,17.42
2023-02-24T16:04:49.346Z,17.47
2023-02-24T16:07:20.066Z,17.50
2023-02-24T16:09:49.076Z,17.47
2023-02-24T16:12:35.952Z,17.47
2023-02-24T16:15:06.955Z,17.47
2023-02-24T16:17:39.233Z,17.53
2023-02-24T16:20:12.657Z,17.55
2023-02-24T16:22:39.594Z,17.53
2023-02-24T16:25:07.581Z,17.49
2023-02-24T16:27:34.786Z,17.46
2023-02-24T16:30:01.937Z,17.40
2023-02-24T16:32:29.125Z,17.37
2023-02-24T16:34:57.304Z,17.29
2023-02-24T16:37:29.793Z,17.18
2023-02-24T16:39:59.279Z,17.07
2023-02-24T16:42:26.320Z,16.99
2023-02-24T16:44:53.328Z,16.90
2023-02-24T16:47:24.623Z,16.90
2023-02-24T16:49:56.299Z,16.90
2023-02-24T16:52:25.117Z,16.84
2023-02-24T16:54:52.389Z,16.76
2023-02-24T16:57:19.422Z,16.70
2023-02-24T16:59:46.650Z,16.68
2023-02-24T17:02:21.877Z,16.67
2023-02-24T17:04:50.142Z,16.62
2023-02-24T17:07:21.364Z,16.60
2023-02-24T17:09:48.403Z,16.54
2023-02-24T17:12:21.729Z,16.46
2023-02-24T17:14:49.242Z,16.43
2023-02-24T17:17:16.223Z,16.32
2023-02-24T17:19:43.348Z,16.32
2023-02-24T17:22:10.513Z,16.31
2023-02-24T17:24:37.440Z,16.27
2023-02-24T17:27:04.822Z,16.23
2023-02-24T17:29:31.657Z,16.13
2023-02-24T17:31:58.687Z,16.11
2023-02-24T17:34:25.773Z,16.03
2023-02-24T17:36:53.539Z,16.04
2023-02-24T17:39:20.468Z,15.99
2023-02-24T17:41:47.360Z,15.95
2023-02-24T17:44:14.459Z,15.89
2023-02-24T17:46:41.376Z,15.87
2023-02-24T17:49:08.665Z,15.67
2023-02-24T17:51:35.566Z,15.68
2023-02-24T17:54:02.507Z,15.63
2023-02-24T17:56:29.578Z,15.59
2023-02-24T17:58:59.049Z,15.52
2023-02-24T18:01:29.022Z,15.48
2023-02-24T18:03:57.608Z,15.43
2023-02-24T18:06:25.220Z,15.40
2023-02-24T18:08:52.183Z,15.37
2023-02-24T18:11:20.359Z,15.26
2023-02-24T18:13:50.922Z,15.21
2023-02-24T18:16:18.126Z,15.18
2023-02-24T18:18:45.259Z,15.15
2023-02-24T18:21:12.359Z,15.12
2023-02-24T18:23:40.621Z,15.02
2023-02-24T18:26:10.543Z,14.96
2023-02-24T18:28:38.806Z,14.84
2023-02-24T18:31:17.732Z,14.82
2023-02-24T18:33:45.403Z,14.73
2023-02-24T18:36:12.909Z,14.70
2023-02-24T18:38:39.996Z,14.58
2023-02-24T18:41:09.713Z,14.54
2023-02-24T18:43:37.107Z,14.53
2023-02-24T18:46:06.836Z,14.57
2023-02-24T18:48:35.061Z,14.58
2023-02-24T18:51:02.512Z,14.57
2023-02-24T18:53:33.809Z,14.56
2023-02-24T18:56:07.173Z,14.56
2023-02-24T18:58:34.717Z,14.58
2023-02-24T19:01:01.673Z,14.50
2023-02-24T19:03:28.680Z,14.43
2023-02-24T19:05:55.616Z,14.30
2023-02-24T19:08:22.567Z,14.31
2023-02-24T19:10:49.496Z,14.22
2023-02-24T19:13:16.441Z,14.16
2023-02-24T19:15:44.928Z,14.15
2023-02-24T19:18:12.073Z,14.15
2023-02-24T19:20:42.994Z,14.16
2023-02-24T19:23:10.852Z,14.16
2023-02-24T19:25:37.777Z,14.15
2023-02-24T19:28:04.855Z,14.09
2023-02-24T19:30:32.017Z,14.07
2023-02-24T19:32:59.545Z,14.03
2023-02-24T19:35:26.571Z,14.02
2023-02-24T19:37:53.443Z,14.00
2023-02-24T19:40:20.646Z,13.96
2023-02-24T19:42:49.496Z,13.90
2023-02-24T19:45:17.148Z,13.88
2023-02-24T19:47:47.034Z,13.82
2023-02-24T19:50:15.641Z,13.81
2023-02-24T19:52:42.957Z,13.76
2023-02-24T19:55:11.693Z,13.74
2023-02-24T19:57:39.158Z,13.72
2023-02-24T20:00:07.286Z,13.59
2023-02-24T20:02:39.704Z,13.56
2023-02-24T20:05:07.734Z,13.52
2023-02-24T20:07:35.033Z,13.49
2023-02-24T20:10:02.156Z,13.47
2023-02-24T20:12:29.081Z,13.46
2023-02-24T20:14:56.186Z,13.44
2023-02-24T20:17:23.124Z,13.41
2023-02-24T20:19:50.169Z,13.41
2023-02-24T20:22:18.398Z,13.40
2023-02-24T20:24:45.442Z,13.37
2023-02-24T20:27:12.795Z,13.31
2023-02-24T20:29:39.750Z,13.31
2023-02-24T20:32:06.837Z,13.26
2023-02-24T20:34:36.725Z,13.22
2023-02-24T20:37:05.527Z,13.20
2023-02-24T20:39:33.284Z,13.17
2023-02-24T20:42:01.501Z,13.13
2023-02-24T20:44:28.878Z,13.14
2023-02-24T20:46:55.795Z,13.09
2023-02-24T20:49:22.693Z,13.07
2023-02-24T20:51:49.776Z,13.06
2023-02-24T20:54:17.529Z,13.02
2023-02-24T20:56:46.086Z,13.01
2023-02-24T20:59:18.691Z,13.01
2023-02-24T21:01:47.963Z,13.01
2023-02-24T21:04:17.259Z,13.01
2023-02-24T21:06:44.288Z,12.98
2023-02-24T21:09:12.212Z,12.95
2023-02-24T21:11:39.408Z,12.96
2023-02-24T21:14:07.232Z,12.94
2023-02-24T21:16:37.396Z,12.96
2023-02-24T21:19:04.475Z,12.95
2023-02-24T21:21:31.357Z,12.95
2023-02-24T21:23:58.182Z,12.89
2023-02-24T21:26:27.076Z,12.89
2023-02-24T21:28:57.418Z,12.89
2023-02-24T21:31:25.902Z,12.86
2023-02-24T21:33:53.711Z,12.85
2023-02-24T21:36:24.179Z,12.83
2023-02-24T21:38:53.018Z,12.84
2023-02-24T21:41:20.183Z,12.85
2023-02-24T21:43:47.382Z,12.85
2023-02-24T21:46:15.863Z,12.82
2023-02-24T21:48:43.198Z,12.80
2023-02-24T21:51:12.810Z,12.81
2023-02-24T21:53:43.682Z,12.79
2023-02-24T21:56:18.172Z,12.66
2023-02-24T21:58:54.526Z,12.68
2023-02-24T22:01:26.875Z,12.67
2023-02-24T22:03:59.702Z,12.67
2023-02-24T22:06:31.483Z,12.68
2023-02-24T22:09:00.228Z,12.66
2023-02-24T22:11:27.704Z,12.68
2023-02-24T22:13:54.697Z,12.70
2023-02-24T22:16:23.874Z,12.70
2023-02-24T22:18:52.248Z,12.70
2023-02-24T22:21:22.624Z,12.70
2023-02-24T22:23:52.397Z,12.73
2023-02-24T22:26:20.562Z,12.71
2023-02-24T22:28:47.854Z,12.74
2023-02-24T22:31:17.972Z,12.72
2023-02-24T22:33:46.235Z,12.65
2023-02-24T22:36:16.107Z,12.63
2023-02-24T22:38:44.133Z,12.62
2023-02-24T22:41:15.010Z,12.57
2023-02-24T22:43:42.020Z,12.57
2023-02-24T22:46:12.324Z,12.56
2023-02-24T22:48:39.658Z,12.54
2023-02-24T22:51:08.838Z,12.55
2023-02-24T22:53:38.756Z,12.57
2023-02-24T22:56:06.866Z,12.55
2023-02-24T22:58:33.855Z,12.56
2023-02-24T23:01:00.893Z,12.54
2023-02-24T23:03:33.292Z,12.55
2023-02-24T23:06:09.263Z,12.55
2023-02-24T23:08:39.328Z,12.53
2023-02-24T23:11:12.454Z,12.53
2023-02-24T23:13:40.994Z,12.52
2023-02-24T23:16:11.317Z,12.48
2023-02-24T23:18:38.383Z,12.49
2023-02-24T23:21:11.517Z,12.48
2023-02-24T23:23:39.084Z,12.47
2023-02-24T23:26:06.672Z,12.47
2023-02-24T23:28:34.005Z,12.49
2023-02-24T23:31:01.047Z,12.49
2023-02-24T23:33:28.327Z,12.38
2023-02-24T23:35:55.330Z,12.42
2023-02-24T23:38:22.434Z,12.44
2023-02-24T23:40:50.831Z,12.43
2023-02-24T23:43:18.641Z,12.43
2023-02-24T23:45:46.146Z,12.39
2023-02-24T23:48:14.454Z,12.38
2023-02-24T23:50:42.737Z,12.38
2023-02-24T23:53:10.794Z,12.39
2023-02-24T23:55:40.922Z,12.39
2023-02-24T23:58:08.384Z,12.36
